Terminal Aerodrome Forecast
Issued by NWS

Home | Current Version | Previous Version | Graphics & Text | Print | Product List | Glossary On
Versions: 1 2 3 4 5 6 7 8 9 10 11 12 13 14
000
FTUS42 KMHX 240806 AAA
TAFISO
TAF AMD
KISO 240806Z 2408/2506 00000KT P6SM SKC
      TEMPO 2409/2412 3SM BR
     FM241200 12003KT P6SM SKC
     FM241600 15006KT P6SM SCT070
      AMD LTD TO CLD VIS AND WIND=

USA.gov is the U.S. government's official web portal to all federal, state and local government web resources and services.